Aérodrome :
LOGIN :

S'inscrire | Disclaimer

   EN    FR    IT 

 










Légende :    VFR   VFR Marginal   IFR   IFR Intensif   IFR Très Intensif
Visi : 
Plafond : 
>= 8 km
>= 3000ft
5 à 8 km
1000 à 3000 ft
1500m à 5 km
500 à 1000 ft
800 à 1500m
200 à 500 ft
< 800m
< 200 ft
Symboles :   Orages  Brouillard  Fortes neiges  Fortes précipitations  Vent > 20 kt
SIGMETs :   Divers  Orages  Givrage  Turbulence  Onde Orograph.  Cendres Volcan.







- Altitude de l'aérodrome : 13 ft
- Code IATA : GOA


LIMJ - Genoa Cristoforo Colombo

DERNIER METAR :
  • 221620Z 13011KT 9999 SCT018 BKN027 16/13 Q1019

METARs EXPIRÉS :
  • 221550Z 12010KT 9999 SCT018 BKN030 15/13 Q1019
  • 221520Z 13010KT 9999 SCT018 BKN030 16/13 Q1019
  • 221450Z 14009KT 100V160 9999 SCT018 BKN035 16/13 Q1019
  • 221420Z 14008KT 9999 SCT018 BKN035 16/13 Q1019
  • 221350Z 14009KT 9999 SCT025 BKN035 16/13 Q1019
  • 221320Z 14011KT 9999 SCT025 BKN035 16/12 Q1019

TAF TAF LIMJ
Valide du 22 à 12h jusqu'au 23 à 12h UTC


221100Z 2212/2312 13010KT 9999 SCT020 BKN035
TEMPO 2222/2306 RA
Pas de NOTAMs connus pour ce terrain.



MET'MAP, la Météo Aéronautique d'un coup d'oeil ! - Copyright ORBIFLY Décembre 2007 - Disclaimer

ORBIFLY MET'MAP TEAM :

Programmation & Développement : Alexandra Zaïnal
Conception & Développement : Baudouin d'Aumeries
Co-Programmation & Développement : Marc-Olivier Méhu
Soutien technique & logistique : Manuel Goepfert

Contact : metmap@orbifly.com




SOURCES & CREDITS :

   NOAA